Time;durP1;ratioP1;P1;durP2;ratioP2;P2;SDS_P1;SDS_P2;PMS_P1;PMS_P2;Temp;Humidity;BMP_temperature;BMP_pressure;BME280_temperature;BME280_humidity;BME280_pressure;Samples;Min_cycle;Max_cycle;Signal;HPM_P1;HPM_P2
2022/11/13 00:00:52;;;;;;;15.40;9.07;;;;;;;7.05;100.00;102620.59;5048963;28;20041;-71
2022/11/13 00:03:17;;;;;;;16.58;9.55;;;;;;;7.07;100.00;102616.84;5049127;28;20035;-71
2022/11/13 00:05:43;;;;;;;20.77;10.50;;;;;;;7.07;100.00;102627.47;5049071;28;20032;-71
2022/11/13 00:08:08;;;;;;;22.85;12.02;;;;;;;7.08;100.00;102623.03;5049028;28;20039;-71
2022/11/13 00:10:33;;;;;;;22.30;11.18;;;;;;;7.08;100.00;102628.34;5049057;28;20056;-71
2022/11/13 00:12:59;;;;;;;18.23;9.80;;;;;;;7.06;100.00;102620.50;5051755;28;20090;-71
2022/11/13 00:15:24;;;;;;;21.25;10.35;;;;;;;7.02;100.00;102609.31;5053041;28;20036;-71
2022/11/13 00:17:50;;;;;;;19.35;9.77;;;;;;;7.04;100.00;102614.47;5051571;28;20475;-71
2022/11/13 00:20:16;;;;;;;20.40;10.85;;;;;;;7.01;100.00;102604.94;5052880;28;20064;-71
2022/11/13 00:22:42;;;;;;;17.85;10.20;;;;;;;6.95;100.00;102597.53;5052923;28;20037;-71
2022/11/13 00:25:07;;;;;;;20.98;11.52;;;;;;;6.95;100.00;102600.19;5051764;28;20499;-71
2022/11/13 00:27:33;;;;;;;20.55;11.20;;;;;;;6.95;100.00;102600.19;5052741;28;20029;-71
2022/11/13 00:29:58;;;;;;;22.75;11.70;;;;;;;6.93;100.00;102599.47;5051410;28;20029;-71
2022/11/13 00:32:25;;;;;;;26.65;13.48;;;;;;;6.90;100.00;102594.41;5052781;28;20064;-71
2022/11/13 00:34:50;;;;;;;26.48;15.52;;;;;;;6.86;100.00;102594.81;5052758;28;20032;-71
2022/11/13 00:37:15;;;;;;;32.20;22.48;;;;;;;6.84;100.00;102586.13;5052715;28;20048;-71
2022/11/13 00:39:41;;;;;;;29.13;18.92;;;;;;;6.82;100.00;102594.22;5052420;28;20037;-71
2022/11/13 00:42:06;;;;;;;31.40;21.85;;;;;;;6.79;100.00;102586.53;5052305;28;20057;-71
2022/11/13 00:44:31;;;;;;;27.50;18.25;;;;;;;6.75;100.00;102587.75;5052618;28;20041;-71
2022/11/13 00:46:57;;;;;;;32.35;23.08;;;;;;;6.72;100.00;102580.91;5051194;28;20040;-71
2022/11/13 00:49:22;;;;;;;33.35;23.77;;;;;;;6.71;100.00;102579.22;5052440;28;20017;-71
2022/11/13 00:51:47;;;;;;;33.03;22.80;;;;;;;6.72;100.00;102567.63;5052473;28;20407;-71
2022/11/13 00:54:13;;;;;;;31.00;19.95;;;;;;;6.73;100.00;102569.34;5052416;28;20056;-71
2022/11/13 00:56:38;;;;;;;28.48;18.48;;;;;;;6.73;100.00;102569.34;5052332;28;20053;-66
2022/11/13 00:59:03;;;;;;;31.65;19.13;;;;;;;6.71;100.00;102570.44;5052353;28;20496;-66
2022/11/13 01:01:29;;;;;;;26.95;17.27;;;;;;;6.67;100.00;102563.69;5052089;28;20055;-66
2022/11/13 01:03:54;;;;;;;24.15;16.58;;;;;;;6.59;100.00;102577.59;5050938;28;20961;-66
2022/11/13 01:06:22;;;;;;;26.08;15.57;;;;;;;6.52;100.00;102573.75;5052155;28;20044;-66
2022/11/13 01:08:48;;;;;;;26.48;15.52;;;;;;;6.45;100.00;102570.78;5052106;28;20028;-66
2022/11/13 01:11:19;;;;;;;23.55;14.82;;;;;;;6.36;100.00;102572.38;5052154;28;20037;-66
2022/11/13 01:13:47;;;;;;;29.00;16.27;;;;;;;6.25;100.00;102563.63;5052123;28;20365;-66
2022/11/13 01:16:14;;;;;;;21.95;14.57;;;;;;;6.22;100.00;102574.50;5051856;28;20275;-66
2022/11/13 01:18:40;;;;;;;21.20;13.35;;;;;;;6.08;100.00;102568.50;5051976;28;20756;-66
2022/11/13 01:21:08;;;;;;;21.00;12.10;;;;;;;5.97;100.00;102567.69;5050579;28;20025;-66
2022/11/13 01:23:35;;;;;;;22.48;14.00;;;;;;;5.96;100.00;102569.50;5051025;28;20029;-66
2022/11/13 01:26:23;;;;;;;22.27;12.40;;;;;;;5.88;100.00;102571.88;5051824;28;20036;-66
2022/11/13 01:28:49;;;;;;;22.25;12.93;;;;;;;5.81;100.00;102562.75;5051810;28;20090;-66
2022/11/13 01:31:17;;;;;;;21.23;12.88;;;;;;;5.78;100.00;102555.91;5051609;28;20025;-66
2022/11/13 01:33:44;;;;;;;19.40;11.88;;;;;;;5.82;100.00;102561.81;5051601;28;20025;-66
2022/11/13 01:36:13;;;;;;;22.58;12.05;;;;;;;5.83;100.00;102559.00;5051701;28;20033;-66
2022/11/13 01:38:38;;;;;;;19.10;11.25;;;;;;;5.84;100.00;102559.84;5051734;28;20060;-66
2022/11/13 01:41:05;;;;;;;22.35;11.05;;;;;;;5.81;100.00;102555.63;5051170;28;20184;-66
2022/11/13 01:43:33;;;;;;;20.80;11.60;;;;;;;5.74;100.00;102548.31;5051565;28;20037;-66
2022/11/13 01:45:59;;;;;;;19.00;9.35;;;;;;;5.78;100.00;102541.81;5051455;28;20025;-66
2022/11/13 01:48:33;;;;;;;23.05;10.35;;;;;;;5.83;100.00;102544.94;5051070;28;20052;-66
2022/11/13 01:50:59;;;;;;;17.90;11.95;;;;;;;5.76;100.00;102546.38;5051370;28;20021;-66
2022/11/13 01:53:26;;;;;;;24.52;9.63;;;;;;;5.72;100.00;102541.34;5051200;28;20033;-66
2022/11/13 01:55:52;;;;;;;19.35;10.75;;;;;;;5.75;100.00;102536.78;5051151;28;20033;-66
2022/11/13 01:58:17;;;;;;;18.25;9.60;;;;;;;5.77;100.00;102532.22;5051335;28;20039;-66
2022/11/13 02:00:43;;;;;;;19.42;10.15;;;;;;;5.74;100.00;102529.78;5049788;28;20029;-66
2022/11/13 02:03:08;;;;;;;15.57;9.60;;;;;;;5.68;100.00;102533.75;5051188;28;20029;-66
2022/11/13 02:05:34;;;;;;;18.10;10.90;;;;;;;5.66;100.00;102533.06;5050989;28;20037;-66
2022/11/13 02:07:59;;;;;;;17.08;9.77;;;;;;;5.68;100.00;102524.00;5050863;28;20433;-66
2022/11/13 02:10:25;;;;;;;17.50;8.85;;;;;;;5.70;100.00;102526.53;5050954;28;20051;-66
2022/11/13 02:12:51;;;;;;;16.35;8.40;;;;;;;5.64;100.00;102514.66;5050998;28;20499;-66
2022/11/13 02:15:22;;;;;;;18.23;9.13;;;;;;;5.66;100.00;102518.03;5050848;28;20043;-66
2022/11/13 02:17:55;;;;;;;28.23;10.25;;;;;;;5.66;100.00;102519.84;5050839;28;20039;-66
2022/11/13 02:20:40;;;;;;;14.73;8.55;;;;;;;5.60;100.00;102523.78;5050702;28;20492;-66
2022/11/13 02:23:17;;;;;;;17.80;8.48;;;;;;;5.59;100.00;102516.81;5050683;28;20037;-66
2022/11/13 02:25:46;;;;;;;17.05;9.38;;;;;;;5.60;100.00;102518.50;5050671;28;20028;-66
2022/11/13 02:28:11;;;;;;;20.08;9.10;;;;;;;5.64;100.00;102514.66;5050614;28;20468;-66
2022/11/13 02:30:37;;;;;;;17.27;9.00;;;;;;;5.72;100.00;102504.28;5050572;28;20036;-66
2022/11/13 02:33:20;;;;;;;21.25;10.77;;;;;;;5.77;100.00;102503.91;5050409;28;20438;-66
2022/11/13 02:35:46;;;;;;;18.85;9.27;;;;;;;5.83;100.00;102503.41;5050072;28;20040;-66
2022/11/13 02:38:11;;;;;;;18.08;8.27;;;;;;;5.96;100.00;102503.28;5050294;28;20036;-71
2022/11/13 02:40:37;;;;;;;17.08;10.00;;;;;;;6.06;100.00;102501.56;5050351;28;20151;-72
2022/11/13 02:43:03;;;;;;;18.85;9.43;;;;;;;6.15;100.00;102499.97;5050130;28;20136;-71
2022/11/13 02:45:28;;;;;;;17.17;9.07;;;;;;;6.25;100.00;102495.59;5050212;28;20171;-71
2022/11/13 02:47:54;;;;;;;15.20;8.10;;;;;;;6.20;100.00;102481.88;5050242;28;20032;-71
2022/11/13 02:50:19;;;;;;;17.88;9.45;;;;;;;6.33;100.00;102503.72;5050162;28;20029;-71
2022/11/13 02:52:45;;;;;;;15.15;8.23;;;;;;;6.37;100.00;102504.34;5050184;28;20039;-71
2022/11/13 02:55:10;;;;;;;14.93;8.05;;;;;;;6.41;100.00;102505.75;5050112;28;20427;-71
2022/11/13 02:57:35;;;;;;;17.20;9.48;;;;;;;6.45;100.00;102501.88;5050006;28;20036;-71
2022/11/13 03:00:01;;;;;;;16.63;8.20;;;;;;;6.51;100.00;102501.34;5049976;28;20043;-71
2022/11/13 03:02:26;;;;;;;16.88;8.60;;;;;;;6.52;100.00;102503.06;5049895;28;20075;-71
2022/11/13 03:04:51;;;;;;;15.93;8.68;;;;;;;6.51;100.00;102503.16;5049913;28;20075;-71
2022/11/13 03:07:17;;;;;;;14.88;9.13;;;;;;;6.48;100.00;102506.91;5049746;28;20025;-72
2022/11/13 03:09:42;;;;;;;15.07;8.25;;;;;;;6.40;100.00;102503.25;5050114;28;20139;-71
2022/11/13 03:12:08;;;;;;;16.77;8.50;;;;;;;6.36;100.00;102508.78;5049823;28;20032;-71
2022/11/13 03:14:34;;;;;;;14.00;8.30;;;;;;;6.28;100.00;102497.97;5049790;28;20396;-71
2022/11/13 03:17:00;;;;;;;15.15;8.93;;;;;;;6.41;100.00;102500.44;5049691;28;20082;-71
2022/11/13 03:19:26;;;;;;;15.93;8.48;;;;;;;6.47;100.00;102486.69;5049640;28;20463;-72
2022/11/13 03:21:51;;;;;;;16.55;9.45;;;;;;;6.55;100.00;102484.22;5049661;28;20112;-71
2022/11/13 03:24:16;;;;;;;24.67;8.45;;;;;;;6.61;100.00;102479.38;5049457;28;20025;-71
2022/11/13 03:26:42;;;;;;;14.50;9.02;;;;;;;6.65;100.00;102478.97;5049492;28;20021;-71
2022/11/13 03:29:07;;;;;;;15.60;9.10;;;;;;;6.73;100.00;102473.00;5049492;28;20056;-71
2022/11/13 03:31:33;;;;;;;20.05;9.23;;;;;;;6.77;100.00;102472.63;5049409;28;20025;-71
2022/11/13 03:33:58;;;;;;;14.73;8.13;;;;;;;6.79;100.00;102468.03;5049457;28;20048;-71
2022/11/13 03:36:24;;;;;;;17.48;9.18;;;;;;;6.82;100.00;102460.81;5049409;28;20039;-71
2022/11/13 03:38:50;;;;;;;16.48;8.40;;;;;;;6.89;100.00;102465.44;5049426;28;20036;-71
2022/11/13 03:41:15;;;;;;;15.30;8.27;;;;;;;6.95;100.00;102477.34;5049160;28;20048;-71
2022/11/13 03:43:41;;;;;;;14.43;9.05;;;;;;;6.96;100.00;102482.47;5049254;28;20039;-71
2022/11/13 03:46:06;;;;;;;15.82;8.45;;;;;;;6.97;100.00;102476.22;5049171;28;20025;-71
2022/11/13 03:48:32;;;;;;;15.95;9.70;;;;;;;6.94;100.00;102465.03;5049033;28;20554;-71
2022/11/13 03:50:57;;;;;;;16.10;8.55;;;;;;;6.96;100.00;102461.25;5049224;28;20103;-71
2022/11/13 03:53:23;;;;;;;15.77;8.43;;;;;;;6.94;100.00;102459.72;5049312;28;20040;-71
2022/11/13 03:55:48;;;;;;;17.10;8.30;;;;;;;6.95;100.00;102464.91;5049297;28;20028;-66
2022/11/13 03:58:14;;;;;;;17.83;9.00;;;;;;;6.91;100.00;102463.47;5049200;28;20090;-66
2022/11/13 04:00:40;;;;;;;17.17;9.32;;;;;;;6.81;100.00;102454.63;5049047;28;20075;-66
2022/11/13 04:03:06;;;;;;;19.20;9.57;;;;;;;6.78;100.00;102458.38;5049132;28;20029;-66
2022/11/13 04:05:31;;;;;;;17.85;10.00;;;;;;;6.74;100.00;102456.97;5049077;28;20031;-66
2022/11/13 04:07:57;;;;;;;19.48;9.85;;;;;;;6.73;100.00;102450.00;5049094;28;20040;-66
2022/11/13 04:10:22;;;;;;;14.38;9.15;;;;;;;6.73;100.00;102446.50;5049133;28;20029;-66
2022/11/13 04:12:48;;;;;;;17.92;9.60;;;;;;;6.70;100.00;102442.28;5049059;28;20067;-66
2022/11/13 04:15:13;;;;;;;14.55;8.68;;;;;;;6.73;100.00;102443.84;5048974;28;20487;-66
2022/11/13 04:17:38;;;;;;;18.00;9.10;;;;;;;6.66;100.00;102435.59;5049045;28;20037;-66
2022/11/13 04:20:05;;;;;;;13.80;7.97;;;;;;;6.67;100.00;102442.56;5048873;28;20017;-66
2022/11/13 04:22:30;;;;;;;15.93;8.63;;;;;;;6.67;100.00;102439.91;5048822;28;20036;-66
2022/11/13 04:24:55;;;;;;;14.70;8.10;;;;;;;6.66;99.65;102432.94;5048847;28;20511;-66
2022/11/13 04:27:21;;;;;;;17.65;8.07;;;;;;;6.66;100.00;102430.28;5048870;28;20024;-66
2022/11/13 04:29:46;;;;;;;18.50;8.90;;;;;;;6.66;100.00;102421.50;5048842;28;20377;-66
2022/11/13 04:32:11;;;;;;;17.00;8.55;;;;;;;6.63;100.00;102416.44;5048706;28;20481;-66
2022/11/13 04:34:37;;;;;;;15.35;9.65;;;;;;;6.66;99.63;102418.84;5048858;28;20112;-66
2022/11/13 04:37:02;;;;;;;17.20;9.57;;;;;;;6.61;99.79;102413.94;5048802;28;20029;-66
2022/11/13 04:39:28;;;;;;;16.25;8.77;;;;;;;6.61;100.00;102423.72;5048601;28;20029;-67
2022/11/13 04:44:37;;;;;;;15.15;8.82;;;;;;;6.45;100.00;102414.41;5048891;28;20419;-66
2022/11/13 04:47:02;;;;;;;22.75;10.95;;;;;;;6.44;100.00;102406.59;5048682;28;20025;-66
2022/11/13 04:49:27;;;;;;;15.50;8.40;;;;;;;6.44;100.00;102410.06;5048709;28;20390;-66
2022/11/13 04:51:53;;;;;;;16.95;8.77;;;;;;;6.44;100.00;102404.78;5048805;28;20119;-72
2022/11/13 04:54:18;;;;;;;17.10;9.52;;;;;;;6.47;100.00;102404.53;5047493;28;20437;-71
2022/11/13 04:56:43;;;;;;;17.75;9.52;;;;;;;6.45;100.00;102395.88;5048766;28;20130;-71
2022/11/13 04:59:09;;;;;;;16.33;8.70;;;;;;;6.51;100.00;102399.81;5049673;28;20042;-71
2022/11/13 05:01:35;;;;;;;16.83;9.57;;;;;;;6.50;100.00;102401.63;5052108;28;20035;-71
2022/11/13 05:04:01;;;;;;;16.20;8.68;;;;;;;6.47;100.00;102399.22;5052254;28;20120;-71
2022/11/13 05:06:26;;;;;;;17.65;10.23;;;;;;;6.44;100.00;102409.25;5052217;28;20047;-71
2022/11/13 05:08:52;;;;;;;16.40;9.35;;;;;;;6.36;100.00;102391.34;5052417;28;20041;-71
2022/11/13 05:11:17;;;;;;;19.77;9.30;;;;;;;6.36;100.00;102399.28;5052126;28;20119;-71
2022/11/13 05:13:43;;;;;;;17.92;8.98;;;;;;;6.30;100.00;102397.16;5052014;28;20439;-71
2022/11/13 05:16:11;;;;;;;17.98;10.43;;;;;;;6.24;100.00;102395.88;5050690;28;20040;-71
2022/11/13 05:18:37;;;;;;;18.63;10.10;;;;;;;6.20;100.00;102391.81;5052123;28;20596;-71
2022/11/13 05:21:04;;;;;;;19.30;9.18;;;;;;;6.19;100.00;102392.78;5051865;28;20060;-72
2022/11/13 05:23:30;;;;;;;15.38;8.77;;;;;;;6.15;100.00;102384.25;5050469;28;20037;-72
2022/11/13 05:26:06;;;;;;;16.30;8.35;;;;;;;6.10;100.00;102380.31;5051907;28;20040;-71
2022/11/13 05:28:32;;;;;;;19.13;10.50;;;;;;;6.03;100.00;102377.34;5051736;28;20029;-71
2022/11/13 05:31:03;;;;;;;17.30;8.95;;;;;;;5.93;100.00;102384.34;5051633;28;20025;-71
2022/11/13 05:33:28;;;;;;;15.50;8.75;;;;;;;5.82;100.00;102364.06;5051583;28;20033;-71
2022/11/13 05:35:53;;;;;;;18.40;9.25;;;;;;;5.70;100.00;102368.56;5051616;28;21037;-71
2022/11/13 05:38:19;;;;;;;17.02;8.82;;;;;;;5.63;100.00;102370.06;5051454;28;20392;-71
2022/11/13 05:40:44;;;;;;;14.48;7.82;;;;;;;5.58;100.00;102366.09;5051389;28;20033;-71
2022/11/13 05:43:09;;;;;;;15.77;9.18;;;;;;;5.57;100.00;102365.25;5051352;28;20056;-71
2022/11/13 05:45:35;;;;;;;15.40;8.35;;;;;;;5.47;100.00;102349.28;5051341;28;20033;-71
2022/11/13 05:48:00;;;;;;;17.90;10.07;;;;;;;5.42;100.00;102353.28;5050346;28;20098;-71
2022/11/13 05:50:25;;;;;;;18.50;7.80;;;;;;;5.41;100.00;102355.09;5051362;28;20033;-71
2022/11/13 05:52:51;;;;;;;16.15;8.45;;;;;;;5.39;100.00;102353.53;5051322;28;20040;-71
2022/11/13 05:55:16;;;;;;;14.70;7.75;;;;;;;5.40;100.00;102350.78;5049973;28;20086;-71
2022/11/13 05:57:41;;;;;;;13.30;7.78;;;;;;;5.37;100.00;102345.75;5051274;28;20029;-71
2022/11/13 06:00:07;;;;;;;16.52;9.25;;;;;;;5.35;100.00;102349.47;5051082;28;20120;-71
2022/11/13 06:02:34;;;;;;;18.20;8.30;;;;;;;5.25;100.00;102349.38;5051211;28;20399;-71
2022/11/13 06:04:59;;;;;;;16.58;7.82;;;;;;;5.20;100.00;102349.75;5051081;28;20468;-72
2022/11/13 06:07:24;;;;;;;15.35;8.25;;;;;;;5.19;100.00;102353.34;5050847;28;20036;-71
2022/11/13 06:09:50;;;;;;;15.80;8.40;;;;;;;5.08;100.00;102339.31;5049474;28;20035;-72
2022/11/13 06:12:15;;;;;;;11.88;7.50;;;;;;;5.10;100.00;102346.16;5050798;28;20434;-71
2022/11/13 06:14:40;;;;;;;14.55;7.55;;;;;;;5.05;100.00;102345.69;5050895;28;20423;-71
2022/11/13 06:17:05;;;;;;;15.73;8.60;;;;;;;4.97;100.00;102337.53;5050898;28;20480;-71
2022/11/13 06:19:31;;;;;;;13.75;7.10;;;;;;;4.96;100.00;102335.88;5050822;28;20052;-71
2022/11/13 06:21:56;;;;;;;16.75;7.85;;;;;;;4.88;100.00;102336.47;5050802;28;20029;-71
2022/11/13 06:24:21;;;;;;;16.60;8.45;;;;;;;4.82;100.00;102334.31;5050616;28;20033;-71
2022/11/13 06:26:47;;;;;;;17.10;8.77;;;;;;;4.80;100.00;102329.16;5050752;28;20039;-71
2022/11/13 06:29:12;;;;;;;14.02;7.68;;;;;;;4.71;100.00;102337.81;5049450;28;20121;-71
2022/11/13 06:31:38;;;;;;;13.95;8.35;;;;;;;4.63;100.00;102336.72;5050525;28;20025;-71
2022/11/13 06:34:04;;;;;;;15.02;8.13;;;;;;;4.56;100.00;102336.38;5050469;28;20033;-71
2022/11/13 06:36:33;;;;;;;15.50;7.60;;;;;;;4.49;100.00;102338.66;5050578;28;20100;-71
2022/11/13 06:38:59;;;;;;;15.15;8.57;;;;;;;4.39;100.00;102345.63;5049935;28;20050;-71
2022/11/13 06:41:28;;;;;;;14.73;7.32;;;;;;;4.24;100.00;102326.50;5050060;28;20112;-71
2022/11/13 06:43:54;;;;;;;15.18;8.27;;;;;;;4.28;100.00;102335.06;5050291;28;20483;-71
2022/11/13 06:46:22;;;;;;;15.52;7.07;;;;;;;4.20;100.00;102337.44;5050260;28;20472;-71
2022/11/13 06:48:48;;;;;;;14.93;8.15;;;;;;;4.31;100.00;102340.94;5050371;28;20033;-71
2022/11/13 06:51:19;;;;;;;16.45;9.40;;;;;;;4.34;100.00;102342.50;5050258;28;20484;-71
2022/11/13 06:53:45;;;;;;;14.38;7.90;;;;;;;4.29;100.00;102329.63;5049988;28;20031;-71
2022/11/13 06:56:11;;;;;;;17.17;9.32;;;;;;;4.31;100.00;102332.16;5049919;28;20029;-71
2022/11/13 06:58:36;;;;;;;18.95;8.48;;;;;;;4.24;100.00;102334.44;5049906;28;20037;-71
2022/11/13 07:01:16;;;;;;;17.45;9.18;;;;;;;4.15;100.00;102330.72;5049751;28;20057;-71
2022/11/13 07:03:42;;;;;;;15.05;7.72;;;;;;;4.10;100.00;102335.50;5049792;28;20028;-71
2022/11/13 07:06:20;;;;;;;16.30;8.52;;;;;;;4.02;100.00;102319.41;5049634;28;20040;-71
2022/11/13 07:08:46;;;;;;;13.30;7.45;;;;;;;4.06;100.00;102320.88;5049670;28;20503;-68
2022/11/13 07:11:17;;;;;;;16.33;8.05;;;;;;;4.05;100.00;102321.81;5049745;28;20345;-66
2022/11/13 07:13:43;;;;;;;16.90;8.13;;;;;;;4.03;100.00;102317.59;5049911;28;20045;-66
2022/11/13 07:16:10;;;;;;;14.95;7.90;;;;;;;3.96;100.00;102306.69;5049779;28;20072;-66
2022/11/13 07:18:36;;;;;;;14.55;7.13;;;;;;;4.03;100.00;102323.72;5049620;28;20029;-66
2022/11/13 07:21:07;;;;;;;14.55;8.30;;;;;;;4.03;100.00;102307.88;5049266;28;20091;-66
2022/11/13 07:23:33;;;;;;;13.93;7.32;;;;;;;3.97;100.00;102315.44;5049408;28;20033;-66
2022/11/13 07:25:59;;;;;;;15.70;8.73;;;;;;;3.93;100.00;102318.31;5049634;28;20029;-66
2022/11/13 07:28:24;;;;;;;13.70;7.82;;;;;;;3.97;100.00;102318.91;5049481;28;20074;-66
2022/11/13 07:30:49;;;;;;;13.45;7.68;;;;;;;4.01;100.00;102319.50;5049482;28;20118;-66
2022/11/13 07:33:15;;;;;;;14.35;8.13;;;;;;;4.02;100.00;102313.28;5048048;28;20065;-66
2022/11/13 07:35:41;;;;;;;14.60;8.43;;;;;;;4.08;100.00;102307.53;5049416;28;20365;-66
2022/11/13 07:38:07;;;;;;;15.93;8.93;;;;;;;4.10;100.00;102310.91;5049233;28;20060;-66
2022/11/13 07:40:32;;;;;;;15.98;8.45;;;;;;;4.17;100.00;102314.75;5049165;28;20481;-66
2022/11/13 07:43:00;;;;;;;18.60;9.05;;;;;;;4.25;100.00;102311.53;5049096;28;20052;-66
2022/11/13 07:45:27;;;;;;;14.98;8.98;;;;;;;4.35;100.00;102317.78;5049261;28;20442;-67
2022/11/13 07:47:59;;;;;;;25.83;9.85;;;;;;;4.36;100.00;102309.72;5049534;28;20358;-66
2022/11/13 07:50:30;;;;;;;18.90;10.13;;;;;;;4.44;100.00;102308.28;5049141;28;20013;-66
2022/11/13 07:53:00;;;;;;;14.95;8.02;;;;;;;4.46;100.00;102304.56;5049067;28;20484;-66
2022/11/13 07:55:27;;;;;;;17.53;8.27;;;;;;;4.50;100.00;102310.44;5049136;28;20032;-66
2022/11/13 07:57:56;;;;;;;15.57;8.32;;;;;;;4.55;100.00;102306.47;5049181;28;20472;-66
2022/11/13 08:00:22;;;;;;;18.85;8.75;;;;;;;4.59;100.00;102307.91;5048890;28;20024;-66
2022/11/13 08:02:48;;;;;;;20.75;10.25;;;;;;;4.70;100.00;102315.00;5049112;28;20033;-66
2022/11/13 08:05:14;;;;;;;17.10;8.73;;;;;;;4.77;100.00;102312.72;5049148;28;20087;-66
2022/11/13 08:07:39;;;;;;;16.63;9.05;;;;;;;4.89;100.00;102310.88;5047771;28;20037;-71
2022/11/13 08:10:05;;;;;;;15.35;8.80;;;;;;;4.98;100.00;102315.44;5048924;28;20036;-71
2022/11/13 08:12:30;;;;;;;18.20;8.98;;;;;;;5.06;100.00;102299.78;5048887;28;20025;-72
2022/11/13 08:14:56;;;;;;;16.65;9.73;;;;;;;5.21;100.00;102306.47;5048872;28;20032;-72
2022/11/13 08:17:21;;;;;;;16.42;9.00;;;;;;;5.23;100.00;102296.59;5048905;28;20123;-71
2022/11/13 08:19:46;;;;;;;20.02;9.68;;;;;;;5.43;100.00;102310.00;5048832;28;20056;-71
2022/11/13 08:22:12;;;;;;;20.20;11.23;;;;;;;5.55;100.00;102305.47;5048798;28;20083;-71
2022/11/13 08:24:37;;;;;;;21.95;11.77;;;;;;;5.71;100.00;102305.88;5047630;28;20074;-70
2022/11/13 08:27:02;;;;;;;21.52;11.63;;;;;;;5.85;100.00;102304.72;5048755;28;20026;-70
2022/11/13 08:29:28;;;;;;;32.70;12.90;;;;;;;6.00;100.00;102294.66;5048708;28;20035;-70
2022/11/13 08:31:53;;;;;;;19.98;10.98;;;;;;;6.14;100.00;102297.81;5048664;28;20040;-70
2022/11/13 08:34:19;;;;;;;20.67;11.75;;;;;;;6.28;100.00;102288.66;5051995;28;20031;-70
2022/11/13 08:36:44;;;;;;;18.52;10.23;;;;;;;6.44;100.00;102288.16;5052797;28;20361;-70
2022/11/13 08:39:09;;;;;;;19.73;10.75;;;;;;;6.56;100.00;102279.16;5052550;28;20066;-70
2022/11/13 08:41:34;;;;;;;16.70;9.85;;;;;;;6.72;100.00;102286.59;5052389;28;20035;-70
2022/11/13 08:44:00;;;;;;;18.33;10.02;;;;;;;6.84;100.00;102279.38;5052297;28;20099;-70
2022/11/13 08:46:25;;;;;;;16.95;10.15;;;;;;;6.95;100.00;102271.28;5052512;28;20068;-70
2022/11/13 08:48:51;;;;;;;18.90;9.85;;;;;;;7.11;100.00;102275.22;5052515;28;20029;-70
2022/11/13 08:51:17;;;;;;;19.90;8.75;;;;;;;7.23;100.00;102277.59;5052499;28;20396;-72
2022/11/13 08:53:42;;;;;;;15.77;9.52;;;;;;;7.36;100.00;102279.09;5052503;28;20116;-72
2022/11/13 08:56:07;;;;;;;15.45;8.95;;;;;;;7.54;100.00;102281.88;5052453;28;20025;-75
2022/11/13 08:58:33;;;;;;;18.15;9.70;;;;;;;7.69;100.00;102277.81;5052157;28;20483;-74
2022/11/13 09:01:00;;;;;;;14.55;7.88;;;;;;;7.83;100.00;102277.38;5052221;28;20114;-74
2022/11/13 09:03:25;;;;;;;12.25;7.47;;;;;;;7.97;98.45;102270.78;5052153;28;20033;-74
2022/11/13 09:05:51;;;;;;;16.40;8.60;;;;;;;8.07;97.97;102266.28;5052179;28;20025;-74
2022/11/13 09:08:16;;;;;;;12.35;7.47;;;;;;;8.25;97.78;102270.81;5052123;28;20514;-74
2022/11/13 09:10:41;;;;;;;13.80;7.63;;;;;;;8.37;97.18;102269.63;5052004;28;20369;-74
2022/11/13 09:13:10;;;;;;;19.13;7.82;;;;;;;8.47;96.65;102266.97;5052052;28;20033;-74
2022/11/13 09:15:37;;;;;;;13.18;7.57;;;;;;;8.58;95.86;102256.13;5051935;28;20036;-75
2022/11/13 09:18:03;;;;;;;11.88;6.82;;;;;;;8.73;93.24;102267.09;5052058;28;20032;-74
2022/11/13 09:20:30;;;;;;;14.23;7.40;;;;;;;8.84;93.10;102258.91;5051806;28;20047;-74
2022/11/13 09:23:03;;;;;;;12.48;6.90;;;;;;;8.99;92.14;102265.38;5051923;28;20040;-74
2022/11/13 09:25:30;;;;;;;12.88;6.60;;;;;;;9.11;91.12;102262.50;5051864;28;20024;-74
2022/11/13 09:28:00;;;;;;;12.13;6.45;;;;;;;9.23;90.75;102265.78;5051794;28;20029;-77
2022/11/13 09:30:26;;;;;;;12.65;6.20;;;;;;;9.33;89.67;102262.03;5051350;28;20049;-76
2022/11/13 09:32:53;;;;;;;9.30;5.78;;;;;;;9.41;90.51;102262.09;5051534;28;20031;-75
2022/11/13 09:35:35;;;;;;;10.93;6.03;;;;;;;9.52;89.82;102258.34;5051324;28;20484;-75
2022/11/13 09:38:05;;;;;;;8.98;5.60;;;;;;;9.64;91.17;102265.09;5051112;28;20091;-75
2022/11/13 09:40:40;;;;;;;12.20;6.43;;;;;;;9.72;89.05;102259.00;5051092;28;20021;-75
2022/11/13 09:43:19;;;;;;;9.32;5.38;;;;;;;9.84;86.86;102256.91;5050720;28;20056;-74
2022/11/13 09:45:45;;;;;;;11.15;6.20;;;;;;;9.93;84.49;102252.44;5050213;28;20369;-75
2022/11/13 09:48:40;;;;;;;11.02;6.32;;;;;;;10.01;87.70;102244.53;5051208;28;20025;-74
2022/11/13 09:51:28;;;;;;;8.52;5.13;;;;;;;10.22;84.45;102254.78;5051105;28;20037;-74
2022/11/13 09:53:54;;;;;;;8.77;5.32;;;;;;;10.42;83.69;102256.22;5051190;28;20035;-74
2022/11/13 09:56:38;;;;;;;7.95;4.70;;;;;;;10.58;81.82;102257.28;5051287;28;20032;-74
2022/11/13 09:59:22;;;;;;;8.68;4.57;;;;;;;10.75;78.08;102254.50;5051245;28;20385;-75
2022/11/13 10:02:15;;;;;;;8.70;5.10;;;;;;;10.89;77.78;102250.34;5045775;28;20024;-72
2022/11/13 10:04:50;;;;;;;6.25;4.20;;;;;;;11.05;77.22;102246.03;5044609;28;20029;-75
2022/11/13 10:07:27;;;;;;;9.55;4.40;;;;;;;11.08;76.33;102237.69;5043748;28;21022;-74
2022/11/13 10:10:16;;;;;;;7.43;3.92;;;;;;;11.22;75.15;102244.22;5045266;28;20088;-74
2022/11/13 10:12:43;;;;;;;7.22;4.43;;;;;;;11.29;73.59;102239.88;5044894;28;20037;-73
2022/11/13 10:15:10;;;;;;;6.50;4.45;;;;;;;11.40;74.80;102239.56;5044660;28;20035;-73
2022/11/13 10:17:37;;;;;;;7.03;3.85;;;;;;;11.48;74.55;102231.53;5044414;28;20050;-73
2022/11/13 10:20:17;;;;;;;7.00;4.40;;;;;;;11.59;76.54;102235.69;5044997;28;20029;-75
2022/11/13 10:22:52;;;;;;;7.80;4.75;;;;;;;11.65;74.58;102231.50;5043858;28;20029;-75
2022/11/13 10:25:20;;;;;;;9.18;5.63;;;;;;;11.70;74.17;102231.81;5044007;28;20029;-73
2022/11/13 10:27:57;;;;;;;8.77;5.63;;;;;;;11.75;77.71;102232.16;5043780;28;20043;-73
2022/11/13 10:30:22;;;;;;;7.85;4.53;;;;;;;11.83;74.70;102232.94;5045399;28;20108;-74
2022/11/13 10:32:49;;;;;;;8.20;5.10;;;;;;;11.92;77.01;102224.94;5050215;28;20166;-74
2022/11/13 10:35:48;;;;;;;7.82;5.53;;;;;;;11.94;76.31;102222.94;5050586;28;20098;-75
2022/11/13 10:38:23;;;;;;;6.88;4.55;;;;;;;12.02;74.29;102228.25;5050594;28;20029;-70
2022/11/13 10:40:48;;;;;;;8.05;4.60;;;;;;;12.12;71.92;102228.88;5050327;28;20383;-70
2022/11/13 10:43:21;;;;;;;7.75;4.07;;;;;;;12.25;69.06;102223.81;5050166;28;20082;-70
2022/11/13 10:46:04;;;;;;;5.07;3.60;;;;;;;12.38;69.82;102219.75;5050303;28;20065;-71
2022/11/13 10:48:35;;;;;;;7.47;4.10;;;;;;;12.42;67.90;102218.41;5050278;28;20373;-70
2022/11/13 10:51:04;;;;;;;8.82;4.75;;;;;;;12.45;66.37;102213.53;5050156;28;20025;-70
2022/11/13 10:53:39;;;;;;;6.63;4.20;;;;;;;12.55;68.42;102205.28;5050237;28;20108;-70
2022/11/13 10:56:21;;;;;;;7.88;3.88;;;;;;;12.53;69.75;102196.59;5049379;28;20056;-70
2022/11/13 10:59:09;;;;;;;7.45;4.25;;;;;;;12.67;71.93;102203.03;5050112;28;20112;-70
2022/11/13 11:01:34;;;;;;;6.85;4.13;;;;;;;12.74;66.48;102203.16;5049721;28;20043;-70
2022/11/13 11:04:03;;;;;;;8.23;4.65;;;;;;;12.83;67.30;102197.56;5050032;28;20123;-70
2022/11/13 11:06:37;;;;;;;6.32;4.65;;;;;;;12.90;66.51;102200.38;5049982;28;20029;-71
2022/11/13 11:09:30;;;;;;;7.32;4.97;;;;;;;13.01;71.15;102191.09;5049908;28;20025;-70
2022/11/13 11:12:20;;;;;;;9.93;5.65;;;;;;;13.05;68.45;102185.19;5046895;28;20041;-70
2022/11/13 11:15:02;;;;;;;15.93;5.57;;;;;;;13.12;67.38;102190.63;5049708;28;20025;-70
2022/11/13 11:17:48;;;;;;;5.97;4.25;;;;;;;13.15;65.44;102180.41;5049659;28;20031;-71
2022/11/13 11:20:25;;;;;;;7.70;5.05;;;;;;;13.20;67.61;102179.03;5049569;28;20053;-70
2022/11/13 11:23:23;;;;;;;7.97;4.80;;;;;;;13.22;69.05;102163.59;5049447;28;20563;-70